Vossem Meer informatie Vossem


Tervuren markt Meer informatie Tervuren markt


Tervuren park Meer informatie Tervuren park


Bezoek onze andere website:

Meteotemplate

Home Weather Station

Saratoga


Lokaal brand risico:
CBI


Regionaal brand risico: Meer informatie



METAR rapporten vliegvelden

   
EBBR - Brussels
Gewijzigd: Dec 12 2019 2:20 am
Grotendeels bewolkt  
Grotendeels bewolkt  
   Wind: ZW 16.7 km/h
Wind: ZW 16.7 km/h
Temperatuur: 5°C
Voelt als: 2°C
Dauwpunt: 3°C
Vochtigheid: 87%
Barometer: 1003 mb
Bewolking: Grotendeels bewolkt
Zicht: meer dan 10 km
Bewolking: Grotendeels bewolkt 304.8 m
EBBR 120120Z 22009KT 9999 BKN010 05/03 Q1003 NOSIG
EBAW - Antwerp
Gewijzigd: Dec 12 2019 2:20 am
Helder  
Helder  
   Wind: ZW 13 km/h
Wind: ZW 13 km/h
Temperatuur: 5°C
Voelt als: 2°C
Dauwpunt: 3°C
Vochtigheid: 87%
Barometer: 1002 mb
Zicht: meer dan 10 km
Bewolking: Helder
EBAW 120120Z AUTO 23007KT CAVOK 05/03 Q1002
EHBK - Maastricht
Gewijzigd: Dec 12 2019 2:25 am
Bewolking  
Bewolking  
   Wind: ZZW 16.7 km/h
Wind: ZZW 16.7 km/h
Temperatuur: 5°C
Voelt als: 2°C
Dauwpunt: 4°C
Vochtigheid: 93%
Barometer: 1003 mb
Bewolking: Bewolking
Zicht: meer dan 10 km
Bewolking: Licht bewolkt 426.7 m,
Gedeeltelijk bewolkt 518.2 m,
Bewolking 670.6 m
EHBK 120125Z AUTO 20009KT 9999 FEW014 SCT017 OVC022 05/04 Q1003
EDLV - Nijmegen
Gewijzigd: Dec 11 2019 11:50 pm
Verouderd
Gedeeltelijk bewolkt  
Gedeeltelijk bewolkt  
   Wind: Zuiden 11.1 km/h
Wind: Zuiden 11.1 km/h
Temperatuur: 4°C
Voelt als: 1°C
Dauwpunt: 3°C
Vochtigheid: 93%
Barometer: 1003 mb
Bewolking: Gedeeltelijk bewolkt
Zicht: 9 km
Bewolking: Gedeeltelijk bewolkt
EDLV 112250Z 18006KT 9000 NSC 04/03 Q1003
EHRD - Rotterdam
Gewijzigd: Dec 12 2019 2:25 am
Grotendeels bewolkt  
Grotendeels bewolkt  
   Wind: ZW 22.2 km/h
Wind: ZW 22.2 km/h
Temperatuur: 6°C
Voelt als: 2°C
Dauwpunt: 4°C
Vochtigheid: 87%
Barometer: 1001 mb
Bewolking: Grotendeels bewolkt
Zicht: meer dan 10 km
Bewolking: Licht bewolkt 457.2 m,
Gedeeltelijk bewolkt 1127.8 m,
Grotendeels bewolkt 1310.6 m
EHRD 120125Z AUTO 22012KT 190V250 9999 FEW015CB SCT037 BKN043 06/04 Q1001 NOSIG
 

Script ontwikkeld door  Saratoga-weather.org Aangepast voor de template door  Weerstation Leuven

U vindt ons ook hier:

Het Weer Aktueel

UK Metoffice

European Weather Network

WeatherCloud

Weather Underground

Benelux Weer Netwerk

AWEKAS

Citizen Weather Observer Program (CWOP)

Apparatuur in gebruik:

Weerstation
Davis VP2

Weerprogramma
Meteobridge

Weercomputer
TP-Link MR3020

Davis VP2

Meteobridge

TP-Link MR3020